sensor_id;sensor_type;location;lat;lon;timestamp;P1;durP1;ratioP1;P2;durP2;ratioP2
8312;SDS011;4194;43.408;24.626;2022-09-20T00:00:41;2.43;;;0.80;;
8312;SDS011;4194;43.408;24.626;2022-09-20T00:03:08;1.30;;;1.00;;
8312;SDS011;4194;43.408;24.626;2022-09-20T00:05:38;1.40;;;1.23;;
8312;SDS011;4194;43.408;24.626;2022-09-20T00:08:06;0.83;;;0.83;;
8312;SDS011;4194;43.408;24.626;2022-09-20T00:10:35;1.43;;;1.00;;
8312;SDS011;4194;43.408;24.626;2022-09-20T00:13:02;1.30;;;1.20;;
8312;SDS011;4194;43.408;24.626;2022-09-20T00:15:28;1.30;;;1.20;;
8312;SDS011;4194;43.408;24.626;2022-09-20T00:17:54;1.57;;;1.20;;
8312;SDS011;4194;43.408;24.626;2022-09-20T00:20:20;1.67;;;1.00;;
8312;SDS011;4194;43.408;24.626;2022-09-20T00:22:46;1.67;;;1.30;;
8312;SDS011;4194;43.408;24.626;2022-09-20T00:25:15;2.23;;;1.10;;
8312;SDS011;4194;43.408;24.626;2022-09-20T00:27:41;1.50;;;1.00;;
8312;SDS011;4194;43.408;24.626;2022-09-20T00:30:10;1.53;;;1.00;;
8312;SDS011;4194;43.408;24.626;2022-09-20T00:32:37;1.10;;;1.00;;
8312;SDS011;4194;43.408;24.626;2022-09-20T00:35:04;2.10;;;1.13;;
8312;SDS011;4194;43.408;24.626;2022-09-20T00:37:38;1.53;;;1.20;;
8312;SDS011;4194;43.408;24.626;2022-09-20T00:40:15;1.73;;;1.30;;
8312;SDS011;4194;43.408;24.626;2022-09-20T00:42:44;1.40;;;1.30;;
8312;SDS011;4194;43.408;24.626;2022-09-20T00:50:29;1.60;;;1.50;;
8312;SDS011;4194;43.408;24.626;2022-09-20T00:53:07;2.27;;;1.87;;
8312;SDS011;4194;43.408;24.626;2022-09-20T00:55:37;2.13;;;1.90;;
8312;SDS011;4194;43.408;24.626;2022-09-20T00:58:11;2.30;;;2.10;;
8312;SDS011;4194;43.408;24.626;2022-09-20T01:00:38;2.30;;;2.07;;
8312;SDS011;4194;43.408;24.626;2022-09-20T01:03:06;2.17;;;1.97;;
8312;SDS011;4194;43.408;24.626;2022-09-20T01:05:34;2.80;;;2.00;;
8312;SDS011;4194;43.408;24.626;2022-09-20T01:08:02;2.10;;;1.90;;
8312;SDS011;4194;43.408;24.626;2022-09-20T01:10:28;2.13;;;1.90;;
8312;SDS011;4194;43.408;24.626;2022-09-20T01:12:55;1.93;;;1.83;;
8312;SDS011;4194;43.408;24.626;2022-09-20T01:15:21;1.90;;;1.80;;
8312;SDS011;4194;43.408;24.626;2022-09-20T01:17:49;2.40;;;2.20;;
8312;SDS011;4194;43.408;24.626;2022-09-20T01:20:28;2.33;;;2.13;;
8312;SDS011;4194;43.408;24.626;2022-09-20T01:28:23;2.63;;;2.43;;
8312;SDS011;4194;43.408;24.626;2022-09-20T01:35:52;2.27;;;2.07;;
8312;SDS011;4194;43.408;24.626;2022-09-20T01:38:40;2.70;;;2.50;;
8312;SDS011;4194;43.408;24.626;2022-09-20T01:41:11;2.10;;;1.90;;
8312;SDS011;4194;43.408;24.626;2022-09-20T01:48:46;3.40;;;2.30;;
8312;SDS011;4194;43.408;24.626;2022-09-20T02:17:31;3.77;;;2.00;;
8312;SDS011;4194;43.408;24.626;2022-09-20T02:23:11;2.10;;;1.80;;
8312;SDS011;4194;43.408;24.626;2022-09-20T02:29:01;3.17;;;2.30;;
8312;SDS011;4194;43.408;24.626;2022-09-20T02:47:37;1.80;;;1.70;;
8312;SDS011;4194;43.408;24.626;2022-09-20T02:50:10;3.23;;;1.87;;
8312;SDS011;4194;43.408;24.626;2022-09-20T02:52:50;4.40;;;2.13;;
8312;SDS011;4194;43.408;24.626;2022-09-20T02:55:26;2.17;;;1.97;;
8312;SDS011;4194;43.408;24.626;2022-09-20T03:00:58;2.30;;;1.70;;
8312;SDS011;4194;43.408;24.626;2022-09-20T03:11:59;2.67;;;1.90;;
8312;SDS011;4194;43.408;24.626;2022-09-20T03:17:50;2.40;;;2.20;;
8312;SDS011;4194;43.408;24.626;2022-09-20T03:32:38;4.23;;;2.80;;
8312;SDS011;4194;43.408;24.626;2022-09-20T03:46:25;2.70;;;2.07;;
8312;SDS011;4194;43.408;24.626;2022-09-20T03:57:48;4.40;;;2.20;;
8312;SDS011;4194;43.408;24.626;2022-09-20T04:03:09;2.07;;;1.90;;
8312;SDS011;4194;43.408;24.626;2022-09-20T04:05:51;1.97;;;1.87;;
8312;SDS011;4194;43.408;24.626;2022-09-20T04:14:46;3.77;;;2.30;;
8312;SDS011;4194;43.408;24.626;2022-09-20T04:22:37;6.33;;;2.27;;
8312;SDS011;4194;43.408;24.626;2022-09-20T04:25:16;2.40;;;2.20;;
8312;SDS011;4194;43.408;24.626;2022-09-20T04:27:51;3.30;;;2.40;;
8312;SDS011;4194;43.408;24.626;2022-09-20T04:30:22;4.33;;;2.03;;
8312;SDS011;4194;43.408;24.626;2022-09-20T04:32:57;4.33;;;2.03;;
8312;SDS011;4194;43.408;24.626;2022-09-20T04:38:29;3.33;;;2.27;;
8312;SDS011;4194;43.408;24.626;2022-09-20T05:12:29;4.10;;;3.40;;
8312;SDS011;4194;43.408;24.626;2022-09-20T05:21:11;5.20;;;3.50;;
8312;SDS011;4194;43.408;24.626;2022-09-20T05:31:43;4.30;;;2.00;;
8312;SDS011;4194;43.408;24.626;2022-09-20T05:42:34;1.40;;;1.30;;
8312;SDS011;4194;43.408;24.626;2022-09-20T05:48:16;2.73;;;1.90;;
8312;SDS011;4194;43.408;24.626;2022-09-20T05:56:44;2.07;;;1.67;;
8312;SDS011;4194;43.408;24.626;2022-09-20T06:18:31;1.50;;;1.03;;
8312;SDS011;4194;43.408;24.626;2022-09-20T06:23:41;15.30;;;2.90;;
8312;SDS011;4194;43.408;24.626;2022-09-20T06:26:09;2.33;;;0.80;;
8312;SDS011;4194;43.408;24.626;2022-09-20T06:28:41;1.10;;;1.00;;
8312;SDS011;4194;43.408;24.626;2022-09-20T06:31:15;2.03;;;1.00;;
8312;SDS011;4194;43.408;24.626;2022-09-20T06:33:55;1.20;;;1.07;;
8312;SDS011;4194;43.408;24.626;2022-09-20T06:39:23;1.60;;;0.93;;
8312;SDS011;4194;43.408;24.626;2022-09-20T06:42:26;1.00;;;1.00;;
8312;SDS011;4194;43.408;24.626;2022-09-20T06:44:53;0.70;;;0.70;;
8312;SDS011;4194;43.408;24.626;2022-09-20T06:47:20;1.77;;;0.80;;
8312;SDS011;4194;43.408;24.626;2022-09-20T06:49:47;1.17;;;0.80;;
8312;SDS011;4194;43.408;24.626;2022-09-20T06:52:17;0.77;;;0.77;;
8312;SDS011;4194;43.408;24.626;2022-09-20T06:54:45;2.00;;;0.90;;
8312;SDS011;4194;43.408;24.626;2022-09-20T06:57:32;1.27;;;0.80;;
8312;SDS011;4194;43.408;24.626;2022-09-20T07:00:02;3.50;;;1.00;;
8312;SDS011;4194;43.408;24.626;2022-09-20T07:02:29;1.37;;;0.70;;
8312;SDS011;4194;43.408;24.626;2022-09-20T07:04:55;1.23;;;0.80;;
8312;SDS011;4194;43.408;24.626;2022-09-20T07:07:21;0.70;;;0.70;;
8312;SDS011;4194;43.408;24.626;2022-09-20T07:09:47;1.17;;;0.90;;
8312;SDS011;4194;43.408;24.626;2022-09-20T07:12:16;0.70;;;0.70;;
8312;SDS011;4194;43.408;24.626;2022-09-20T07:14:42;1.10;;;1.00;;
8312;SDS011;4194;43.408;24.626;2022-09-20T07:17:08;1.27;;;0.90;;
8312;SDS011;4194;43.408;24.626;2022-09-20T07:19:34;2.23;;;0.70;;
8312;SDS011;4194;43.408;24.626;2022-09-20T07:22:00;3.27;;;0.90;;
8312;SDS011;4194;43.408;24.626;2022-09-20T07:24:26;3.90;;;1.00;;
8312;SDS011;4194;43.408;24.626;2022-09-20T07:27:00;0.87;;;0.87;;
8312;SDS011;4194;43.408;24.626;2022-09-20T07:29:27;1.97;;;0.60;;
8312;SDS011;4194;43.408;24.626;2022-09-20T07:31:54;0.80;;;0.80;;
8312;SDS011;4194;43.408;24.626;2022-09-20T07:34:20;1.73;;;1.00;;
8312;SDS011;4194;43.408;24.626;2022-09-20T07:36:47;3.60;;;1.00;;
8312;SDS011;4194;43.408;24.626;2022-09-20T07:39:14;1.30;;;1.00;;
8312;SDS011;4194;43.408;24.626;2022-09-20T07:41:40;1.53;;;0.87;;
8312;SDS011;4194;43.408;24.626;2022-09-20T07:44:07;2.37;;;1.10;;
8312;SDS011;4194;43.408;24.626;2022-09-20T07:46:52;0.80;;;0.80;;
8312;SDS011;4194;43.408;24.626;2022-09-20T07:49:20;1.10;;;1.00;;
8312;SDS011;4194;43.408;24.626;2022-09-20T07:51:46;1.83;;;0.60;;
8312;SDS011;4194;43.408;24.626;2022-09-20T07:54:13;1.87;;;0.80;;
8312;SDS011;4194;43.408;24.626;2022-09-20T07:56:40;5.13;;;0.90;;
8312;SDS011;4194;43.408;24.626;2022-09-20T07:59:06;3.83;;;1.03;;
8312;SDS011;4194;43.408;24.626;2022-09-20T08:01:34;1.43;;;0.90;;
8312;SDS011;4194;43.408;24.626;2022-09-20T08:04:00;1.53;;;0.87;;
8312;SDS011;4194;43.408;24.626;2022-09-20T08:06:26;2.27;;;0.70;;
8312;SDS011;4194;43.408;24.626;2022-09-20T08:08:52;2.87;;;0.60;;
8312;SDS011;4194;43.408;24.626;2022-09-20T08:11:19;1.27;;;0.73;;
8312;SDS011;4194;43.408;24.626;2022-09-20T08:13:50;0.70;;;0.60;;
8312;SDS011;4194;43.408;24.626;2022-09-20T08:16:17;2.97;;;0.60;;
8312;SDS011;4194;43.408;24.626;2022-09-20T08:18:48;0.50;;;0.50;;
8312;SDS011;4194;43.408;24.626;2022-09-20T08:21:15;2.40;;;0.80;;
8312;SDS011;4194;43.408;24.626;2022-09-20T08:23:42;0.80;;;0.60;;
8312;SDS011;4194;43.408;24.626;2022-09-20T08:26:11;2.77;;;0.80;;
8312;SDS011;4194;43.408;24.626;2022-09-20T08:28:39;0.53;;;0.53;;
8312;SDS011;4194;43.408;24.626;2022-09-20T08:34:04;0.80;;;0.80;;
8312;SDS011;4194;43.408;24.626;2022-09-20T08:36:31;4.63;;;0.80;;
8312;SDS011;4194;43.408;24.626;2022-09-20T08:38:58;1.70;;;0.50;;
8312;SDS011;4194;43.408;24.626;2022-09-20T08:41:29;0.70;;;0.70;;
8312;SDS011;4194;43.408;24.626;2022-09-20T08:46:49;2.27;;;0.73;;
8312;SDS011;4194;43.408;24.626;2022-09-20T08:49:36;0.67;;;0.50;;
8312;SDS011;4194;43.408;24.626;2022-09-20T08:52:02;2.13;;;0.70;;
8312;SDS011;4194;43.408;24.626;2022-09-20T08:54:30;2.43;;;0.73;;
8312;SDS011;4194;43.408;24.626;2022-09-20T08:57:01;1.40;;;0.90;;
8312;SDS011;4194;43.408;24.626;2022-09-20T08:59:29;1.47;;;0.60;;
8312;SDS011;4194;43.408;24.626;2022-09-20T09:01:56;0.80;;;0.63;;
8312;SDS011;4194;43.408;24.626;2022-09-20T09:04:33;0.90;;;0.63;;
8312;SDS011;4194;43.408;24.626;2022-09-20T09:07:00;1.13;;;0.60;;
8312;SDS011;4194;43.408;24.626;2022-09-20T09:09:27;0.80;;;0.70;;
8312;SDS011;4194;43.408;24.626;2022-09-20T09:11:54;0.70;;;0.67;;
8312;SDS011;4194;43.408;24.626;2022-09-20T09:14:31;0.53;;;0.53;;
8312;SDS011;4194;43.408;24.626;2022-09-20T09:17:16;0.60;;;0.60;;
8312;SDS011;4194;43.408;24.626;2022-09-20T09:20:06;0.83;;;0.70;;
8312;SDS011;4194;43.408;24.626;2022-09-20T09:22:44;2.17;;;1.40;;
8312;SDS011;4194;43.408;24.626;2022-09-20T09:25:22;1.40;;;0.80;;
8312;SDS011;4194;43.408;24.626;2022-09-20T09:30:41;2.30;;;1.43;;
8312;SDS011;4194;43.408;24.626;2022-09-20T09:35:54;1.87;;;0.83;;
8312;SDS011;4194;43.408;24.626;2022-09-20T09:38:24;2.73;;;0.80;;
8312;SDS011;4194;43.408;24.626;2022-09-20T09:41:01;3.50;;;1.03;;
8312;SDS011;4194;43.408;24.626;2022-09-20T09:43:30;0.83;;;0.83;;
8312;SDS011;4194;43.408;24.626;2022-09-20T09:48:45;1.10;;;1.00;;
8312;SDS011;4194;43.408;24.626;2022-09-20T09:51:17;2.20;;;0.80;;
8312;SDS011;4194;43.408;24.626;2022-09-20T09:53:45;4.10;;;0.60;;
8312;SDS011;4194;43.408;24.626;2022-09-20T10:04:12;1.20;;;0.93;;
8312;SDS011;4194;43.408;24.626;2022-09-20T10:06:47;2.13;;;0.47;;
8312;SDS011;4194;43.408;24.626;2022-09-20T10:14:18;0.50;;;0.50;;
8312;SDS011;4194;43.408;24.626;2022-09-20T10:17:18;1.33;;;0.73;;
8312;SDS011;4194;43.408;24.626;2022-09-20T10:19:49;0.80;;;0.53;;
8312;SDS011;4194;43.408;24.626;2022-09-20T10:31:02;2.43;;;0.60;;
8312;SDS011;4194;43.408;24.626;2022-09-20T10:37:11;0.77;;;0.60;;
8312;SDS011;4194;43.408;24.626;2022-09-20T10:39:43;2.60;;;0.80;;
8312;SDS011;4194;43.408;24.626;2022-09-20T10:42:30;0.87;;;0.70;;
8312;SDS011;4194;43.408;24.626;2022-09-20T10:48:24;3.37;;;0.50;;
8312;SDS011;4194;43.408;24.626;2022-09-20T10:50:57;1.83;;;0.77;;
8312;SDS011;4194;43.408;24.626;2022-09-20T10:54:01;5.13;;;0.67;;
8312;SDS011;4194;43.408;24.626;2022-09-20T10:57:04;0.70;;;0.70;;
8312;SDS011;4194;43.408;24.626;2022-09-20T11:02:32;1.30;;;0.70;;
8312;SDS011;4194;43.408;24.626;2022-09-20T11:05:05;5.03;;;0.60;;
8312;SDS011;4194;43.408;24.626;2022-09-20T11:10:39;0.47;;;0.47;;
8312;SDS011;4194;43.408;24.626;2022-09-20T11:13:18;1.20;;;0.60;;
8312;SDS011;4194;43.408;24.626;2022-09-20T11:16:05;3.47;;;0.97;;
8312;SDS011;4194;43.408;24.626;2022-09-20T11:18:39;2.77;;;0.40;;
8312;SDS011;4194;43.408;24.626;2022-09-20T11:21:07;1.83;;;0.53;;
8312;SDS011;4194;43.408;24.626;2022-09-20T11:23:48;2.07;;;0.60;;
8312;SDS011;4194;43.408;24.626;2022-09-20T11:26:23;3.30;;;0.50;;
8312;SDS011;4194;43.408;24.626;2022-09-20T11:29:00;0.50;;;0.40;;
8312;SDS011;4194;43.408;24.626;2022-09-20T11:31:48;0.60;;;0.50;;
8312;SDS011;4194;43.408;24.626;2022-09-20T11:34:28;1.20;;;0.50;;
8312;SDS011;4194;43.408;24.626;2022-09-20T11:36:57;2.93;;;0.60;;
8312;SDS011;4194;43.408;24.626;2022-09-20T11:39:38;0.60;;;0.40;;
8312;SDS011;4194;43.408;24.626;2022-09-20T11:42:19;3.20;;;0.60;;
8312;SDS011;4194;43.408;24.626;2022-09-20T11:44:53;4.47;;;0.60;;
8312;SDS011;4194;43.408;24.626;2022-09-20T11:58:50;3.60;;;0.70;;
8312;SDS011;4194;43.408;24.626;2022-09-20T12:01:38;2.57;;;0.60;;
8312;SDS011;4194;43.408;24.626;2022-09-20T12:04:10;0.53;;;0.53;;
8312;SDS011;4194;43.408;24.626;2022-09-20T12:06:43;5.20;;;0.93;;
8312;SDS011;4194;43.408;24.626;2022-09-20T12:09:26;2.10;;;0.60;;
8312;SDS011;4194;43.408;24.626;2022-09-20T12:14:59;0.67;;;0.50;;
8312;SDS011;4194;43.408;24.626;2022-09-20T12:28:50;1.10;;;0.57;;
8312;SDS011;4194;43.408;24.626;2022-09-20T12:34:13;2.10;;;0.70;;
8312;SDS011;4194;43.408;24.626;2022-09-20T12:39:27;2.43;;;0.50;;
8312;SDS011;4194;43.408;24.626;2022-09-20T12:44:22;1.00;;;0.70;;
8312;SDS011;4194;43.408;24.626;2022-09-20T13:03:34;0.63;;;0.50;;
8312;SDS011;4194;43.408;24.626;2022-09-20T13:11:43;2.67;;;0.70;;
8312;SDS011;4194;43.408;24.626;2022-09-20T13:14:21;1.60;;;0.80;;
8312;SDS011;4194;43.408;24.626;2022-09-20T13:17:11;1.10;;;0.70;;
8312;SDS011;4194;43.408;24.626;2022-09-20T13:19:45;3.13;;;0.77;;
8312;SDS011;4194;43.408;24.626;2022-09-20T13:22:28;4.40;;;0.80;;
8312;SDS011;4194;43.408;24.626;2022-09-20T13:25:06;1.20;;;0.60;;
8312;SDS011;4194;43.408;24.626;2022-09-20T13:30:39;1.53;;;0.70;;
8312;SDS011;4194;43.408;24.626;2022-09-20T13:35:45;2.43;;;0.50;;
8312;SDS011;4194;43.408;24.626;2022-09-20T13:38:13;0.70;;;0.70;;
8312;SDS011;4194;43.408;24.626;2022-09-20T13:40:44;0.60;;;0.50;;
8312;SDS011;4194;43.408;24.626;2022-09-20T13:43:29;0.80;;;0.63;;
8312;SDS011;4194;43.408;24.626;2022-09-20T13:46:06;0.87;;;0.77;;
8312;SDS011;4194;43.408;24.626;2022-09-20T13:48:32;1.90;;;0.70;;
8312;SDS011;4194;43.408;24.626;2022-09-20T13:50:58;1.90;;;0.50;;
8312;SDS011;4194;43.408;24.626;2022-09-20T13:53:24;0.90;;;0.77;;
8312;SDS011;4194;43.408;24.626;2022-09-20T13:55:51;1.60;;;0.63;;
8312;SDS011;4194;43.408;24.626;2022-09-20T13:58:23;0.57;;;0.57;;
8312;SDS011;4194;43.408;24.626;2022-09-20T14:00:50;0.50;;;0.50;;
8312;SDS011;4194;43.408;24.626;2022-09-20T14:03:22;1.20;;;0.80;;
8312;SDS011;4194;43.408;24.626;2022-09-20T14:05:50;4.13;;;0.90;;
8312;SDS011;4194;43.408;24.626;2022-09-20T14:08:40;2.50;;;0.73;;
8312;SDS011;4194;43.408;24.626;2022-09-20T14:11:16;1.70;;;0.80;;
8312;SDS011;4194;43.408;24.626;2022-09-20T14:13:54;1.60;;;0.70;;
8312;SDS011;4194;43.408;24.626;2022-09-20T14:16:23;0.50;;;0.50;;
8312;SDS011;4194;43.408;24.626;2022-09-20T14:18:54;3.50;;;0.70;;
8312;SDS011;4194;43.408;24.626;2022-09-20T14:21:26;1.37;;;0.90;;
8312;SDS011;4194;43.408;24.626;2022-09-20T14:26:33;0.80;;;0.60;;
8312;SDS011;4194;43.408;24.626;2022-09-20T14:37:45;3.97;;;2.30;;
8312;SDS011;4194;43.408;24.626;2022-09-20T14:40:44;0.70;;;0.70;;
8312;SDS011;4194;43.408;24.626;2022-09-20T14:43:22;0.60;;;0.50;;
8312;SDS011;4194;43.408;24.626;2022-09-20T14:45:59;0.55;;;0.50;;
8312;SDS011;4194;43.408;24.626;2022-09-20T14:48:32;0.87;;;0.60;;
8312;SDS011;4194;43.408;24.626;2022-09-20T14:53:46;2.23;;;0.60;;
8312;SDS011;4194;43.408;24.626;2022-09-20T14:56:33;0.83;;;0.80;;
8312;SDS011;4194;43.408;24.626;2022-09-20T15:01:29;2.90;;;0.70;;
8312;SDS011;4194;43.408;24.626;2022-09-20T15:03:56;0.67;;;0.67;;
8312;SDS011;4194;43.408;24.626;2022-09-20T15:06:22;1.60;;;0.70;;
8312;SDS011;4194;43.408;24.626;2022-09-20T15:08:48;0.53;;;0.53;;
8312;SDS011;4194;43.408;24.626;2022-09-20T15:11:15;2.10;;;0.80;;
8312;SDS011;4194;43.408;24.626;2022-09-20T15:13:41;2.23;;;0.70;;
8312;SDS011;4194;43.408;24.626;2022-09-20T15:16:07;1.73;;;0.60;;
8312;SDS011;4194;43.408;24.626;2022-09-20T15:18:35;1.30;;;0.80;;
8312;SDS011;4194;43.408;24.626;2022-09-20T15:21:04;3.13;;;0.67;;
8312;SDS011;4194;43.408;24.626;2022-09-20T15:23:30;1.63;;;0.60;;
8312;SDS011;4194;43.408;24.626;2022-09-20T15:25:56;3.67;;;0.87;;
8312;SDS011;4194;43.408;24.626;2022-09-20T15:28:22;2.17;;;0.80;;
8312;SDS011;4194;43.408;24.626;2022-09-20T15:30:49;0.93;;;0.80;;
8312;SDS011;4194;43.408;24.626;2022-09-20T15:33:16;4.33;;;0.93;;
8312;SDS011;4194;43.408;24.626;2022-09-20T15:35:43;0.87;;;0.80;;
8312;SDS011;4194;43.408;24.626;2022-09-20T15:38:09;0.93;;;0.67;;
8312;SDS011;4194;43.408;24.626;2022-09-20T15:40:40;2.90;;;1.00;;
8312;SDS011;4194;43.408;24.626;2022-09-20T15:43:07;0.80;;;0.77;;
8312;SDS011;4194;43.408;24.626;2022-09-20T15:45:35;0.97;;;0.73;;
8312;SDS011;4194;43.408;24.626;2022-09-20T15:48:19;2.40;;;0.90;;
8312;SDS011;4194;43.408;24.626;2022-09-20T15:50:59;0.70;;;0.67;;
8312;SDS011;4194;43.408;24.626;2022-09-20T15:53:32;1.50;;;1.03;;
8312;SDS011;4194;43.408;24.626;2022-09-20T15:55:58;0.73;;;0.70;;
8312;SDS011;4194;43.408;24.626;2022-09-20T15:58:26;2.73;;;0.90;;
8312;SDS011;4194;43.408;24.626;2022-09-20T16:01:04;2.47;;;0.90;;
8312;SDS011;4194;43.408;24.626;2022-09-20T16:03:32;2.00;;;0.90;;
8312;SDS011;4194;43.408;24.626;2022-09-20T16:05:59;1.70;;;0.70;;
8312;SDS011;4194;43.408;24.626;2022-09-20T16:08:30;9.90;;;1.10;;
8312;SDS011;4194;43.408;24.626;2022-09-20T16:10:57;2.60;;;1.07;;
8312;SDS011;4194;43.408;24.626;2022-09-20T16:13:23;1.60;;;1.00;;
8312;SDS011;4194;43.408;24.626;2022-09-20T16:15:55;1.00;;;0.90;;
8312;SDS011;4194;43.408;24.626;2022-09-20T16:18:22;1.73;;;0.97;;
8312;SDS011;4194;43.408;24.626;2022-09-20T16:21:08;2.40;;;1.40;;
8312;SDS011;4194;43.408;24.626;2022-09-20T16:23:35;4.70;;;2.40;;
8312;SDS011;4194;43.408;24.626;2022-09-20T16:26:03;5.40;;;1.60;;
8312;SDS011;4194;43.408;24.626;2022-09-20T16:28:30;7.77;;;4.07;;
8312;SDS011;4194;43.408;24.626;2022-09-20T16:30:57;3.10;;;1.50;;
8312;SDS011;4194;43.408;24.626;2022-09-20T16:33:23;10.70;;;4.47;;
8312;SDS011;4194;43.408;24.626;2022-09-20T16:35:49;16.90;;;6.13;;
8312;SDS011;4194;43.408;24.626;2022-09-20T16:38:15;3.07;;;1.53;;
8312;SDS011;4194;43.408;24.626;2022-09-20T16:40:42;5.00;;;2.83;;
8312;SDS011;4194;43.408;24.626;2022-09-20T16:43:08;2.73;;;1.77;;
8312;SDS011;4194;43.408;24.626;2022-09-20T16:45:34;3.90;;;1.40;;
8312;SDS011;4194;43.408;24.626;2022-09-20T16:48:00;1.57;;;1.10;;
8312;SDS011;4194;43.408;24.626;2022-09-20T16:50:26;2.20;;;1.20;;
8312;SDS011;4194;43.408;24.626;2022-09-20T16:52:52;3.20;;;1.33;;
8312;SDS011;4194;43.408;24.626;2022-09-20T16:55:18;3.27;;;1.87;;
8312;SDS011;4194;43.408;24.626;2022-09-20T16:57:47;3.07;;;1.60;;
8312;SDS011;4194;43.408;24.626;2022-09-20T17:00:14;2.67;;;1.73;;
8312;SDS011;4194;43.408;24.626;2022-09-20T17:02:44;3.23;;;1.50;;
8312;SDS011;4194;43.408;24.626;2022-09-20T17:05:14;4.77;;;1.80;;
8312;SDS011;4194;43.408;24.626;2022-09-20T17:07:40;1.77;;;1.17;;
8312;SDS011;4194;43.408;24.626;2022-09-20T17:10:07;3.60;;;1.80;;
8312;SDS011;4194;43.408;24.626;2022-09-20T17:12:33;3.13;;;1.80;;
8312;SDS011;4194;43.408;24.626;2022-09-20T17:15:05;2.57;;;1.80;;
8312;SDS011;4194;43.408;24.626;2022-09-20T17:17:32;4.53;;;1.90;;
8312;SDS011;4194;43.408;24.626;2022-09-20T17:19:58;4.47;;;1.70;;
8312;SDS011;4194;43.408;24.626;2022-09-20T17:22:28;6.27;;;1.70;;
8312;SDS011;4194;43.408;24.626;2022-09-20T17:24:54;2.03;;;1.60;;
8312;SDS011;4194;43.408;24.626;2022-09-20T17:27:19;3.67;;;1.70;;
8312;SDS011;4194;43.408;24.626;2022-09-20T17:29:45;5.03;;;1.90;;
8312;SDS011;4194;43.408;24.626;2022-09-20T17:32:11;2.90;;;1.60;;
8312;SDS011;4194;43.408;24.626;2022-09-20T17:34:37;3.10;;;1.60;;
8312;SDS011;4194;43.408;24.626;2022-09-20T17:37:03;3.90;;;1.97;;
8312;SDS011;4194;43.408;24.626;2022-09-20T17:39:29;2.47;;;1.93;;
8312;SDS011;4194;43.408;24.626;2022-09-20T17:41:55;3.40;;;1.83;;
8312;SDS011;4194;43.408;24.626;2022-09-20T17:44:20;3.53;;;1.83;;
8312;SDS011;4194;43.408;24.626;2022-09-20T17:46:47;2.50;;;1.60;;
8312;SDS011;4194;43.408;24.626;2022-09-20T17:49:17;2.40;;;1.77;;
8312;SDS011;4194;43.408;24.626;2022-09-20T17:51:46;3.93;;;2.10;;
8312;SDS011;4194;43.408;24.626;2022-09-20T17:54:16;1.97;;;1.80;;
8312;SDS011;4194;43.408;24.626;2022-09-20T17:56:43;3.77;;;2.00;;
8312;SDS011;4194;43.408;24.626;2022-09-20T17:59:11;2.20;;;2.00;;
8312;SDS011;4194;43.408;24.626;2022-09-20T18:01:39;2.33;;;1.90;;
8312;SDS011;4194;43.408;24.626;2022-09-20T18:04:06;3.23;;;2.20;;
8312;SDS011;4194;43.408;24.626;2022-09-20T18:07:05;2.43;;;1.77;;
8312;SDS011;4194;43.408;24.626;2022-09-20T18:09:25;3.10;;;2.13;;
8312;SDS011;4194;43.408;24.626;2022-09-20T18:11:52;2.37;;;1.90;;
8312;SDS011;4194;43.408;24.626;2022-09-20T18:14:20;2.60;;;1.97;;
8312;SDS011;4194;43.408;24.626;2022-09-20T18:16:52;4.77;;;2.13;;
8312;SDS011;4194;43.408;24.626;2022-09-20T18:19:23;3.93;;;2.00;;
8312;SDS011;4194;43.408;24.626;2022-09-20T18:21:48;4.30;;;2.23;;
8312;SDS011;4194;43.408;24.626;2022-09-20T18:24:14;2.80;;;2.20;;
8312;SDS011;4194;43.408;24.626;2022-09-20T18:26:40;7.20;;;2.40;;
8312;SDS011;4194;43.408;24.626;2022-09-20T18:29:07;6.37;;;2.80;;
8312;SDS011;4194;43.408;24.626;2022-09-20T18:34:18;6.03;;;2.70;;
8312;SDS011;4194;43.408;24.626;2022-09-20T18:36:49;3.10;;;2.83;;
8312;SDS011;4194;43.408;24.626;2022-09-20T18:39:20;4.20;;;3.13;;
8312;SDS011;4194;43.408;24.626;2022-09-20T18:41:47;4.43;;;3.07;;
8312;SDS011;4194;43.408;24.626;2022-09-20T18:44:14;6.43;;;3.20;;
8312;SDS011;4194;43.408;24.626;2022-09-20T18:46:42;5.20;;;2.70;;
8312;SDS011;4194;43.408;24.626;2022-09-20T18:49:08;3.57;;;2.97;;
8312;SDS011;4194;43.408;24.626;2022-09-20T18:51:36;4.73;;;2.90;;
8312;SDS011;4194;43.408;24.626;2022-09-20T18:54:02;5.70;;;2.97;;
8312;SDS011;4194;43.408;24.626;2022-09-20T18:59:01;4.60;;;2.92;;
8312;SDS011;4194;43.408;24.626;2022-09-20T19:09:46;5.40;;;3.77;;
8312;SDS011;4194;43.408;24.626;2022-09-20T19:12:19;5.13;;;4.00;;
8312;SDS011;4194;43.408;24.626;2022-09-20T19:15:15;6.27;;;3.97;;
8312;SDS011;4194;43.408;24.626;2022-09-20T19:26:31;9.77;;;6.07;;
8312;SDS011;4194;43.408;24.626;2022-09-20T19:29:02;11.37;;;5.47;;
8312;SDS011;4194;43.408;24.626;2022-09-20T19:31:35;16.67;;;6.80;;
8312;SDS011;4194;43.408;24.626;2022-09-20T19:34:02;8.87;;;5.00;;
8312;SDS011;4194;43.408;24.626;2022-09-20T19:36:41;6.50;;;4.57;;
8312;SDS011;4194;43.408;24.626;2022-09-20T19:50:30;3.93;;;3.53;;
8312;SDS011;4194;43.408;24.626;2022-09-20T19:53:15;7.00;;;3.67;;
8312;SDS011;4194;43.408;24.626;2022-09-20T19:55:44;5.13;;;3.97;;
8312;SDS011;4194;43.408;24.626;2022-09-20T19:58:12;6.13;;;4.67;;
8312;SDS011;4194;43.408;24.626;2022-09-20T20:00:39;6.23;;;4.13;;
8312;SDS011;4194;43.408;24.626;2022-09-20T20:03:08;8.17;;;4.50;;
8312;SDS011;4194;43.408;24.626;2022-09-20T20:05:36;5.27;;;4.43;;
8312;SDS011;4194;43.408;24.626;2022-09-20T20:13:24;5.33;;;4.47;;
8312;SDS011;4194;43.408;24.626;2022-09-20T20:16:26;4.90;;;4.40;;
8312;SDS011;4194;43.408;24.626;2022-09-20T20:19:07;6.90;;;4.00;;
8312;SDS011;4194;43.408;24.626;2022-09-20T20:21:51;4.10;;;3.50;;
8312;SDS011;4194;43.408;24.626;2022-09-20T20:24:29;6.70;;;3.87;;
8312;SDS011;4194;43.408;24.626;2022-09-20T20:27:05;4.37;;;3.70;;
8312;SDS011;4194;43.408;24.626;2022-09-20T20:29:31;5.10;;;3.63;;
8312;SDS011;4194;43.408;24.626;2022-09-20T20:31:56;7.70;;;3.93;;
8312;SDS011;4194;43.408;24.626;2022-09-20T20:34:22;8.00;;;4.00;;
8312;SDS011;4194;43.408;24.626;2022-09-20T20:36:50;4.23;;;3.77;;
8312;SDS011;4194;43.408;24.626;2022-09-20T20:39:18;8.77;;;4.53;;
8312;SDS011;4194;43.408;24.626;2022-09-20T20:41:44;6.83;;;4.43;;
8312;SDS011;4194;43.408;24.626;2022-09-20T20:44:16;7.90;;;4.43;;
8312;SDS011;4194;43.408;24.626;2022-09-20T20:46:42;5.83;;;4.40;;
8312;SDS011;4194;43.408;24.626;2022-09-20T20:49:09;7.23;;;5.00;;
8312;SDS011;4194;43.408;24.626;2022-09-20T20:51:34;7.23;;;4.73;;
8312;SDS011;4194;43.408;24.626;2022-09-20T20:54:00;7.53;;;4.23;;
8312;SDS011;4194;43.408;24.626;2022-09-20T20:56:28;6.93;;;4.13;;
8312;SDS011;4194;43.408;24.626;2022-09-20T20:58:55;6.50;;;4.53;;
8312;SDS011;4194;43.408;24.626;2022-09-20T21:01:27;7.43;;;4.00;;
8312;SDS011;4194;43.408;24.626;2022-09-20T21:03:58;5.43;;;3.37;;
8312;SDS011;4194;43.408;24.626;2022-09-20T21:06:26;6.93;;;4.07;;
8312;SDS011;4194;43.408;24.626;2022-09-20T21:08:54;4.90;;;3.70;;
8312;SDS011;4194;43.408;24.626;2022-09-20T21:13:48;5.93;;;3.80;;
8312;SDS011;4194;43.408;24.626;2022-09-20T21:16:19;5.47;;;3.27;;
8312;SDS011;4194;43.408;24.626;2022-09-20T21:18:47;5.90;;;3.07;;
8312;SDS011;4194;43.408;24.626;2022-09-20T21:21:18;8.03;;;3.03;;
8312;SDS011;4194;43.408;24.626;2022-09-20T21:23:48;3.83;;;2.63;;
8312;SDS011;4194;43.408;24.626;2022-09-20T21:26:15;3.90;;;3.00;;
8312;SDS011;4194;43.408;24.626;2022-09-20T21:28:42;3.30;;;2.37;;
8312;SDS011;4194;43.408;24.626;2022-09-20T21:31:10;2.57;;;2.27;;
8312;SDS011;4194;43.408;24.626;2022-09-20T21:33:38;3.20;;;2.60;;
8312;SDS011;4194;43.408;24.626;2022-09-20T21:36:06;2.70;;;2.10;;
8312;SDS011;4194;43.408;24.626;2022-09-20T21:38:37;3.33;;;2.30;;
8312;SDS011;4194;43.408;24.626;2022-09-20T21:43:38;4.30;;;2.47;;
8312;SDS011;4194;43.408;24.626;2022-09-20T21:46:25;2.10;;;1.90;;
8312;SDS011;4194;43.408;24.626;2022-09-20T21:48:58;1.93;;;1.83;;
8312;SDS011;4194;43.408;24.626;2022-09-20T21:51:25;2.53;;;2.03;;
8312;SDS011;4194;43.408;24.626;2022-09-20T21:53:55;2.47;;;2.00;;
8312;SDS011;4194;43.408;24.626;2022-09-20T21:56:22;3.13;;;2.00;;